Blue Dog Lake, South Dakota
Current Conditions -  °F | °C
As of 1:53 AM on Tuesday 21 Oct 2014 (Local Time) from KATY Reporting Station
Clear Clear  
Wind Chill: 43°   Ceiling: Unl
Heat Index: 45°   Visibility: 10mi
Dew Point: 36°   Wind: 5mph
Humidity: 71%   Direction: 120°ESE
Pressure: 30.05"   Gusts: NA
Location:  45.3948°N, 97.2932°W
Report Text: KATY 210653Z AUTO 12004KT 10SM CLR 07/02 A3005 RMK AO2 SLP176 T00720022
Loading
Personal Weather Stations






























Interactive Weather Map
Tropical Storm Tracking
New forecast layout! Learn more

10-Day Weather Forecast

Advertisements
Track Severe Weather on mobile